Time;durP1;ratioP1;P1;durP2;ratioP2;P2;SDS_P1;SDS_P2;PMS_P1;PMS_P2;Temp;Humidity;BMP_temperature;BMP_pressure;BME280_temperature;BME280_humidity;BME280_pressure;Samples;Min_cycle;Max_cycle;Signal;HPM_P1;HPM_P2
2022/07/23 00:00:43;;;;;;;7.43;5.13;;;;;;;15.84;89.09;101779.44;5030182;28;20032;-80
2022/07/23 00:03:08;;;;;;;7.07;5.40;;;;;;;15.86;89.17;101782.81;5041726;28;20478;-80
2022/07/23 00:05:34;;;;;;;6.40;4.60;;;;;;;15.90;88.70;101789.56;5049549;28;20039;-80
2022/07/23 00:08:00;;;;;;;6.75;4.72;;;;;;;15.90;88.91;101784.25;5049845;28;20025;-80
2022/07/23 00:10:25;;;;;;;8.80;5.00;;;;;;;15.85;88.30;101797.06;5049705;28;20021;-81
2022/07/23 00:12:50;;;;;;;5.95;4.65;;;;;;;15.90;88.60;101789.56;5049417;28;20020;-80
2022/07/23 00:15:15;;;;;;;6.32;4.88;;;;;;;15.87;88.52;101787.16;5021095;28;20502;-79
2022/07/23 00:17:41;;;;;;;6.43;5.13;;;;;;;15.77;88.63;101778.25;5043306;28;20035;-80
2022/07/23 00:20:07;;;;;;;10.52;4.95;;;;;;;15.74;89.08;101784.66;5031086;28;20090;-80
2022/07/23 00:22:32;;;;;;;8.20;5.38;;;;;;;15.69;89.12;101789.50;5065016;28;20451;-80
2022/07/23 00:24:58;;;;;;;9.82;5.60;;;;;;;15.61;89.75;101787.47;5031329;28;20028;-80
2022/07/23 00:27:23;;;;;;;8.88;5.30;;;;;;;15.57;89.05;101782.47;5051111;28;20020;-81
2022/07/23 00:29:49;;;;;;;8.05;5.40;;;;;;;15.55;89.51;101779.09;5031976;28;20054;-79
2022/07/23 00:32:14;;;;;;;8.25;5.43;;;;;;;15.49;89.75;101775.13;5042376;28;20030;-80
2022/07/23 00:34:40;;;;;;;6.45;4.90;;;;;;;15.49;89.73;101783.09;5049704;28;20445;-79
2022/07/23 00:37:05;;;;;;;5.93;5.10;;;;;;;15.50;89.54;101775.97;5049750;28;20029;-80
2022/07/23 00:39:31;;;;;;;10.32;5.75;;;;;;;15.47;89.46;101782.38;5048558;28;20436;-79
2022/07/23 00:41:56;;;;;;;6.60;5.70;;;;;;;15.40;89.26;101773.22;5031409;28;20021;-80
2022/07/23 00:44:24;;;;;;;6.88;5.50;;;;;;;15.33;90.20;101774.66;5048834;28;20106;-80
2022/07/23 00:46:56;;;;;;;10.43;6.13;;;;;;;15.25;91.25;101769.13;5049145;28;20028;-81
2022/07/23 00:49:23;;;;;;;7.30;6.35;;;;;;;15.15;91.79;101768.16;5022219;28;20033;-80
2022/07/23 00:51:50;;;;;;;11.32;5.72;;;;;;;15.16;91.11;101772.50;5043870;28;20433;-80
2022/07/23 00:54:19;;;;;;;7.97;5.88;;;;;;;15.14;91.34;101769.13;5030106;28;20395;-80
2022/07/23 00:56:46;;;;;;;9.85;6.30;;;;;;;15.05;91.82;101773.34;5031451;28;20071;-80
2022/07/23 00:59:12;;;;;;;9.88;6.75;;;;;;;15.03;91.72;101768.16;5030609;28;20025;-80
2022/07/23 01:01:37;;;;;;;8.02;6.32;;;;;;;15.00;91.64;101779.00;5047103;28;20493;-80
2022/07/23 01:04:03;;;;;;;8.02;5.70;;;;;;;15.08;91.48;101777.56;5048213;28;20498;-81
2022/07/23 01:06:29;;;;;;;9.02;6.00;;;;;;;14.95;91.82;101780.31;5025937;28;20068;-81
2022/07/23 01:08:55;;;;;;;8.48;5.72;;;;;;;14.90;91.76;101777.19;5043452;28;20025;-81
2022/07/23 01:11:23;;;;;;;9.45;6.53;;;;;;;14.92;91.89;101776.09;5028298;28;20018;-80
2022/07/23 01:13:48;;;;;;;8.82;5.97;;;;;;;14.93;91.49;101766.34;5028849;28;20021;-81
2022/07/23 01:16:14;;;;;;;9.13;6.10;;;;;;;14.84;91.71;101762.59;5032980;28;20035;-80
2022/07/23 01:18:39;;;;;;;7.53;6.38;;;;;;;14.86;91.40;101765.97;5030819;28;20049;-80
2022/07/23 01:21:05;;;;;;;7.75;6.13;;;;;;;14.84;91.58;101762.59;5030499;28;20029;-80
2022/07/23 01:23:30;;;;;;;8.18;6.10;;;;;;;14.78;92.15;101763.06;5018781;28;20029;-80
2022/07/23 01:25:56;;;;;;;6.82;5.85;;;;;;;14.77;91.91;101765.81;5044410;28;20098;-83
2022/07/23 01:28:22;;;;;;;8.07;6.25;;;;;;;14.80;91.84;101765.59;5049154;28;20025;-80
2022/07/23 01:30:48;;;;;;;8.43;6.07;;;;;;;14.76;92.21;101770.28;5048541;28;20029;-80
2022/07/23 01:33:14;;;;;;;8.50;6.53;;;;;;;14.69;92.06;101763.75;5048689;28;20445;-80
2022/07/23 01:35:39;;;;;;;8.88;6.30;;;;;;;14.64;92.39;101763.28;5063684;28;20021;-80
2022/07/23 01:38:04;;;;;;;9.32;6.85;;;;;;;14.63;92.24;101758.94;5048895;28;20475;-80
2022/07/23 01:40:30;;;;;;;8.18;6.10;;;;;;;14.55;92.15;101761.34;5029048;28;20111;-81
2022/07/23 01:42:55;;;;;;;10.48;6.22;;;;;;;14.58;91.96;101766.41;5028290;28;20049;-80
2022/07/23 01:45:21;;;;;;;9.30;6.05;;;;;;;14.60;91.92;101759.19;5047951;28;20440;-80
2022/07/23 01:47:47;;;;;;;9.27;6.93;;;;;;;14.52;92.56;101761.56;5031154;28;20364;-81
2022/07/23 01:50:12;;;;;;;7.13;6.43;;;;;;;14.55;92.27;101764.00;5062885;28;20028;-80
2022/07/23 01:52:37;;;;;;;9.57;6.47;;;;;;;14.53;92.39;101752.66;5048614;28;20025;-81
2022/07/23 01:55:03;;;;;;;11.60;6.65;;;;;;;14.44;92.58;101759.50;5063899;28;20045;-81
2022/07/23 01:57:28;;;;;;;9.23;6.60;;;;;;;14.41;92.66;101755.25;5047521;28;20044;-81
2022/07/23 01:59:54;;;;;;;9.23;6.47;;;;;;;14.37;92.67;101758.22;5039604;28;20024;-80
2022/07/23 02:02:19;;;;;;;9.20;6.25;;;;;;;14.29;92.96;101756.16;5026541;28;20485;-80
2022/07/23 02:04:44;;;;;;;10.07;6.35;;;;;;;14.35;92.59;101755.69;5028174;28;20026;-81
2022/07/23 02:07:09;;;;;;;12.60;6.60;;;;;;;14.34;92.83;101754.00;5028484;28;20052;-80
2022/07/23 02:09:35;;;;;;;9.15;6.50;;;;;;;14.35;92.42;101755.69;5028457;28;20163;-80
2022/07/23 02:12:01;;;;;;;9.55;6.72;;;;;;;14.26;93.37;101755.56;5032442;28;20071;-80
2022/07/23 02:14:26;;;;;;;9.65;6.35;;;;;;;14.28;93.06;101756.28;5048157;28;20033;-79
2022/07/23 02:16:52;;;;;;;7.07;5.80;;;;;;;14.19;92.78;101749.88;5043473;28;20079;-80
2022/07/23 02:19:17;;;;;;;8.23;6.40;;;;;;;14.15;92.73;101753.72;5030068;28;20112;-79
2022/07/23 02:21:43;;;;;;;6.60;5.80;;;;;;;14.18;92.83;101756.13;5033732;28;20494;-80
2022/07/23 02:24:08;;;;;;;6.80;5.82;;;;;;;14.06;92.97;101749.09;5053673;28;20096;-80
2022/07/23 02:26:34;;;;;;;11.43;6.55;;;;;;;14.09;92.83;101748.88;5051001;28;20029;-80
2022/07/23 02:29:01;;;;;;;6.90;6.18;;;;;;;14.00;92.94;101749.53;5068313;28;20017;-81
2022/07/23 02:31:27;;;;;;;8.75;6.75;;;;;;;14.00;93.08;101747.72;5032361;28;20429;-79
2022/07/23 02:33:52;;;;;;;11.70;6.70;;;;;;;13.93;93.26;101741.22;5044601;28;20025;-80
2022/07/23 02:36:18;;;;;;;8.50;6.63;;;;;;;13.92;93.34;101741.31;5031146;28;20036;-80
2022/07/23 02:38:43;;;;;;;7.43;6.72;;;;;;;13.89;93.35;101742.41;5013423;28;20088;-79
2022/07/23 02:41:09;;;;;;;10.10;6.85;;;;;;;13.84;93.73;101746.34;5038679;28;20394;-79
2022/07/23 02:43:34;;;;;;;11.27;6.55;;;;;;;13.90;93.49;101753.81;5050745;28;20466;-79
2022/07/23 02:46:00;;;;;;;11.43;6.55;;;;;;;13.84;92.90;101754.28;5050737;28;20108;-80
2022/07/23 02:48:26;;;;;;;12.10;6.63;;;;;;;13.77;93.11;101754.72;5050470;28;20029;-80
2022/07/23 02:50:52;;;;;;;9.13;6.68;;;;;;;13.74;93.42;101751.47;5047725;28;20040;-80
2022/07/23 02:53:17;;;;;;;7.63;6.82;;;;;;;13.73;93.87;101753.28;5031561;28;20021;-79
2022/07/23 02:55:43;;;;;;;9.43;6.65;;;;;;;13.78;93.91;101760.88;5050323;28;20533;-80
2022/07/23 02:58:08;;;;;;;7.43;6.72;;;;;;;13.77;93.50;101765.31;5032199;28;20441;-79
2022/07/23 03:00:33;;;;;;;8.20;6.50;;;;;;;13.78;93.35;101763.50;5031755;28;20037;-79
2022/07/23 03:02:59;;;;;;;9.27;6.95;;;;;;;13.74;93.24;101760.25;5032371;28;20052;-81
2022/07/23 03:05:24;;;;;;;8.73;6.60;;;;;;;13.67;93.57;101759.00;5050920;28;20409;-79
2022/07/23 03:07:49;;;;;;;9.73;7.03;;;;;;;13.65;93.53;101760.06;5031854;28;20025;-82
2022/07/23 03:10:17;;;;;;;9.85;6.30;;;;;;;13.68;93.47;101760.69;5033381;28;20513;-81
2022/07/23 03:12:43;;;;;;;9.02;6.70;;;;;;;13.67;93.78;101763.44;5030923;28;20021;-81
2022/07/23 03:15:09;;;;;;;8.15;6.90;;;;;;;13.58;93.63;101764.94;5030419;28;20566;-82
2022/07/23 03:17:34;;;;;;;7.30;6.60;;;;;;;13.55;93.39;101759.88;5029547;28;20021;-81
2022/07/23 03:19:59;;;;;;;7.43;6.82;;;;;;;13.52;93.75;101759.25;5043768;28;20025;-80
2022/07/23 03:22:25;;;;;;;11.88;7.72;;;;;;;13.47;93.51;101768.34;5049237;28;20025;-79
2022/07/23 03:24:56;;;;;;;10.38;8.38;;;;;;;13.41;94.20;101766.16;5050496;28;20028;-79
2022/07/23 03:27:23;;;;;;;9.57;8.20;;;;;;;13.38;94.11;101778.75;5032664;28;20031;-79
2022/07/23 03:29:50;;;;;;;9.77;8.00;;;;;;;13.39;93.68;101776.00;5031673;28;20029;-80
2022/07/23 03:32:16;;;;;;;12.32;8.43;;;;;;;13.35;93.85;101768.38;5050011;28;20013;-80
2022/07/23 03:34:41;;;;;;;10.85;9.43;;;;;;;13.36;93.56;101772.72;5031852;28;20021;-80
2022/07/23 03:37:06;;;;;;;13.10;9.43;;;;;;;13.30;93.92;101778.44;5032456;28;20025;-80
2022/07/23 03:39:32;;;;;;;15.35;11.38;;;;;;;13.31;94.34;101773.06;5050170;28;20040;-80
2022/07/23 03:41:57;;;;;;;17.63;12.18;;;;;;;13.26;94.69;101775.19;5048304;28;20055;-80
2022/07/23 03:44:22;;;;;;;14.48;11.50;;;;;;;13.25;94.64;101783.22;5051080;28;20020;-80
2022/07/23 03:46:48;;;;;;;12.63;11.25;;;;;;;13.27;94.59;101773.38;5032673;28;20033;-80
2022/07/23 03:49:13;;;;;;;10.65;9.55;;;;;;;13.19;94.68;101779.19;5031378;28;20505;-80
2022/07/23 03:51:39;;;;;;;10.40;9.30;;;;;;;13.18;94.38;101775.69;5050070;28;20052;-79
2022/07/23 03:54:04;;;;;;;10.40;9.00;;;;;;;13.14;94.91;101774.19;5032339;28;20123;-82
2022/07/23 03:56:29;;;;;;;9.73;8.70;;;;;;;13.13;94.84;101774.28;5031061;28;20044;-79
2022/07/23 03:58:55;;;;;;;10.32;8.85;;;;;;;13.08;94.41;101782.53;5029896;28;20036;-80
2022/07/23 04:01:20;;;;;;;10.57;9.35;;;;;;;13.04;94.64;101781.06;5048532;28;20065;-80
2022/07/23 04:03:46;;;;;;;9.77;8.77;;;;;;;13.03;94.59;101779.38;5049207;28;20020;-80
2022/07/23 04:06:12;;;;;;;11.13;8.73;;;;;;;12.99;94.78;101783.19;5031039;28;20032;-80
2022/07/23 04:08:37;;;;;;;11.20;8.77;;;;;;;13.00;95.21;101779.59;5031897;28;20029;-80
2022/07/23 04:11:02;;;;;;;11.15;8.63;;;;;;;13.03;94.88;101784.66;5031410;28;20064;-79
2022/07/23 04:13:28;;;;;;;10.30;8.88;;;;;;;13.04;94.86;101791.63;5049107;28;20082;-80
2022/07/23 04:15:53;;;;;;;11.27;9.43;;;;;;;13.03;94.55;101795.22;5041747;28;20030;-80
2022/07/23 04:18:20;;;;;;;11.10;8.93;;;;;;;13.07;94.98;101796.72;5046941;28;20036;-80
2022/07/23 04:20:46;;;;;;;9.98;8.98;;;;;;;13.11;94.87;101795.53;5069331;28;20079;-80
2022/07/23 04:23:12;;;;;;;10.48;9.02;;;;;;;13.12;94.72;101791.94;5059050;28;20307;-80
2022/07/23 04:25:37;;;;;;;9.85;8.95;;;;;;;13.11;94.53;101798.19;5048653;28;20099;-79
2022/07/23 04:28:03;;;;;;;10.38;9.38;;;;;;;13.11;94.68;101806.09;5051783;28;20025;-80
2022/07/23 04:30:28;;;;;;;12.52;10.98;;;;;;;13.14;95.02;101803.25;5047997;28;20067;-80
2022/07/23 04:32:54;;;;;;;12.95;10.43;;;;;;;13.13;95.37;101809.50;5030587;28;20072;-80
2022/07/23 04:35:19;;;;;;;13.45;10.73;;;;;;;13.15;95.89;101809.38;5049134;28;20104;-80
2022/07/23 04:37:45;;;;;;;12.45;10.63;;;;;;;13.16;96.04;101811.91;5049518;28;20070;-79
2022/07/23 04:40:11;;;;;;;12.73;11.20;;;;;;;13.25;96.48;101820.22;5044675;28;20500;-80
2022/07/23 04:42:37;;;;;;;14.02;11.77;;;;;;;13.38;96.06;101808.66;5035754;28;20033;-79
2022/07/23 04:45:03;;;;;;;12.95;11.15;;;;;;;13.37;95.57;101808.78;5048934;28;20052;-79
2022/07/23 04:47:29;;;;;;;17.60;11.68;;;;;;;13.37;95.73;101808.78;5048648;28;20505;-79
2022/07/23 04:49:54;;;;;;;12.70;11.40;;;;;;;13.39;95.70;101814.81;5049874;28;20036;-81
2022/07/23 04:52:19;;;;;;;13.30;11.82;;;;;;;13.36;96.00;101828.22;5048567;28;20020;-81
2022/07/23 04:54:45;;;;;;;14.82;12.32;;;;;;;13.39;96.07;101818.28;5031837;28;20518;-81
2022/07/23 04:57:10;;;;;;;16.23;11.98;;;;;;;13.42;96.09;101819.88;5049584;28;20033;-82
2022/07/23 04:59:35;;;;;;;17.90;12.52;;;;;;;13.43;97.03;101822.41;5050093;28;20474;-79
2022/07/23 05:02:01;;;;;;;17.98;12.52;;;;;;;13.44;97.01;101812.69;5049545;28;20024;-79
2022/07/23 05:04:26;;;;;;;17.23;12.02;;;;;;;13.47;97.05;101815.09;5050276;28;20115;-81
2022/07/23 05:06:51;;;;;;;12.55;11.35;;;;;;;13.54;97.16;101820.78;5068969;28;20390;-79
2022/07/23 05:09:17;;;;;;;17.48;12.95;;;;;;;13.49;97.19;101818.47;5051670;28;20039;-80
2022/07/23 05:11:42;;;;;;;14.65;12.85;;;;;;;13.59;97.18;101819.50;5037424;28;20032;-79
2022/07/23 05:14:07;;;;;;;16.40;14.07;;;;;;;13.56;97.54;101818.88;5034900;28;20027;-80
2022/07/23 05:16:33;;;;;;;16.20;13.32;;;;;;;13.59;97.97;101811.56;5040255;28;20043;-80
2022/07/23 05:18:58;;;;;;;15.18;12.77;;;;;;;13.64;97.81;101822.69;5041744;28;20032;-80
2022/07/23 05:21:23;;;;;;;15.38;13.77;;;;;;;13.69;97.98;101820.56;5060267;28;20393;-81
2022/07/23 05:23:50;;;;;;;16.85;14.20;;;;;;;13.73;98.39;101832.63;5066224;28;20016;-80
2022/07/23 05:26:15;;;;;;;21.02;15.10;;;;;;;13.78;98.82;101824.34;5041400;28;20036;-80
2022/07/23 05:28:41;;;;;;;19.30;15.32;;;;;;;13.85;99.06;101835.34;5063920;28;20433;-80
2022/07/23 05:31:06;;;;;;;17.83;14.48;;;;;;;13.86;98.79;101824.63;5039142;28;20046;-82
2022/07/23 05:33:31;;;;;;;20.05;13.68;;;;;;;13.90;98.97;101833.19;5060735;28;20052;-82
2022/07/23 05:36:03;;;;;;;21.35;14.32;;;;;;;13.92;98.88;101826.00;5058651;28;20103;-80
2022/07/23 05:38:29;;;;;;;15.82;13.93;;;;;;;13.94;99.23;101835.50;5058218;28;20033;-82
2022/07/23 05:40:54;;;;;;;19.42;14.52;;;;;;;13.94;98.85;101838.16;5060407;28;20040;-81
2022/07/23 05:43:20;;;;;;;16.40;14.30;;;;;;;14.03;98.80;101840.16;5056712;28;20406;-80
2022/07/23 05:45:47;;;;;;;19.65;14.25;;;;;;;14.11;99.11;101843.09;5058605;28;20040;-80
2022/07/23 05:48:12;;;;;;;17.20;14.40;;;;;;;14.15;98.64;101843.69;5067269;28;20039;-80
2022/07/23 05:50:38;;;;;;;16.88;13.73;;;;;;;14.29;99.17;101846.16;5054407;28;20243;-80
2022/07/23 05:53:03;;;;;;;16.30;14.05;;;;;;;14.32;98.82;101845.94;5050441;28;20061;-81
2022/07/23 05:55:31;;;;;;;17.15;13.70;;;;;;;14.40;98.05;101854.16;5052610;28;20064;-81
2022/07/23 05:57:56;;;;;;;16.50;14.10;;;;;;;14.50;98.14;101854.38;5053895;28;20025;-80
2022/07/23 06:00:22;;;;;;;16.30;13.65;;;;;;;14.55;97.88;101852.22;5052434;28;20441;-80
2022/07/23 06:02:47;;;;;;;17.70;13.68;;;;;;;14.61;97.83;101851.75;5034650;28;20067;-80
2022/07/23 06:05:13;;;;;;;17.10;13.02;;;;;;;14.65;97.06;101853.22;5053528;28;20029;-80
2022/07/23 06:07:38;;;;;;;15.05;13.55;;;;;;;14.72;97.26;101858.91;5034658;28;20025;-80
2022/07/23 06:10:04;;;;;;;15.23;13.40;;;;;;;14.78;97.17;101866.38;5054209;28;20028;-80
2022/07/23 06:12:30;;;;;;;17.42;14.27;;;;;;;14.85;97.22;101869.44;5033587;28;20112;-80
2022/07/23 06:14:55;;;;;;;19.33;13.50;;;;;;;14.97;96.77;101868.50;5035765;28;20045;-79
2022/07/23 06:17:21;;;;;;;15.88;13.20;;;;;;;14.99;96.64;101869.22;5068238;28;20051;-80
2022/07/23 06:19:46;;;;;;;16.60;13.40;;;;;;;15.07;96.69;101858.88;5053294;28;20087;-80
2022/07/23 06:22:12;;;;;;;13.38;11.93;;;;;;;15.10;94.63;101861.28;5031796;28;20312;-80
2022/07/23 06:24:38;;;;;;;15.95;13.13;;;;;;;15.24;95.57;101866.41;5052316;28;20017;-80
2022/07/23 06:27:04;;;;;;;13.77;12.27;;;;;;;15.31;94.63;101859.66;5053838;28;20033;-82
2022/07/23 06:29:29;;;;;;;13.57;11.70;;;;;;;15.34;95.03;101863.88;5051757;28;20412;-83
2022/07/23 06:31:55;;;;;;;12.85;11.55;;;;;;;15.44;93.93;101856.88;5053425;28;20119;-83
2022/07/23 06:34:20;;;;;;;15.07;11.00;;;;;;;15.48;92.52;101860.13;5054865;28;20029;-83
2022/07/23 06:36:45;;;;;;;12.60;11.20;;;;;;;15.53;92.38;101861.44;5053593;28;20024;-82
2022/07/23 06:39:11;;;;;;;13.13;10.68;;;;;;;15.61;92.39;101869.72;5052705;28;20033;-83
2022/07/23 06:41:36;;;;;;;10.75;9.65;;;;;;;15.69;90.74;101862.94;5053506;28;20021;-81
2022/07/23 06:44:02;;;;;;;13.25;10.00;;;;;;;15.75;90.73;101870.41;5037119;28;20103;-83
2022/07/23 06:46:27;;;;;;;9.52;8.45;;;;;;;15.87;88.95;101869.44;5051888;28;20035;-83
2022/07/23 06:48:53;;;;;;;10.80;8.48;;;;;;;15.88;87.09;101864.00;5054643;28;20126;-91
2022/07/23 06:51:18;;;;;;;9.10;7.88;;;;;;;16.02;88.98;101865.56;5051174;28;20378;-86
2022/07/23 06:53:44;;;;;;;9.98;7.90;;;;;;;16.07;86.34;101874.00;5047978;28;20068;-85
2022/07/23 06:56:09;;;;;;;10.50;7.40;;;;;;;16.15;85.86;101874.22;5049567;28;20091;-82
2022/07/23 06:58:38;;;;;;;9.90;6.82;;;;;;;16.18;83.75;101871.31;5034986;28;20406;-86
2022/07/23 07:01:03;;;;;;;10.10;7.03;;;;;;;16.32;85.02;101864.03;5051528;28;20036;-83
2022/07/23 07:03:29;;;;;;;10.38;7.80;;;;;;;16.44;84.67;101868.34;5051173;28;20033;-84
2022/07/23 07:05:57;;;;;;;9.07;7.18;;;;;;;16.61;84.58;101870.44;5031152;28;20033;-82
2022/07/23 07:08:22;;;;;;;7.25;6.55;;;;;;;16.70;82.62;101869.69;5050978;28;20454;-82
2022/07/23 07:10:48;;;;;;;7.90;6.13;;;;;;;16.95;81.19;101867.66;5050920;28;20104;-84
2022/07/23 07:13:13;;;;;;;9.02;6.15;;;;;;;17.22;81.08;101865.31;5014852;28;20111;-85
2022/07/23 07:15:39;;;;;;;7.32;5.90;;;;;;;17.43;80.58;101858.13;5032408;28;20017;-83
2022/07/23 07:18:04;;;;;;;9.85;6.50;;;;;;;17.66;78.97;101847.31;5051968;28;20037;-84
2022/07/23 07:20:30;;;;;;;9.15;5.45;;;;;;;17.80;75.93;101862.94;5049505;28;20391;-83
2022/07/23 07:22:55;;;;;;;7.97;5.35;;;;;;;18.07;75.64;101865.81;5033241;28;20508;-83
2022/07/23 07:25:20;;;;;;;7.50;4.60;;;;;;;18.33;74.14;101865.25;5050086;28;20035;-83
2022/07/23 07:27:46;;;;;;;6.43;4.53;;;;;;;18.26;71.60;101869.47;5052266;28;20067;-82
2022/07/23 07:30:12;;;;;;;6.30;4.45;;;;;;;18.50;72.83;101872.59;5063679;28;20306;-83
2022/07/23 07:32:37;;;;;;;6.75;4.35;;;;;;;18.64;72.08;101874.84;5049364;28;20113;-83
2022/07/23 07:35:04;;;;;;;7.38;4.43;;;;;;;18.72;69.83;101875.00;5049385;28;20609;-83
2022/07/23 07:37:29;;;;;;;5.85;4.50;;;;;;;19.01;70.95;101879.47;5030857;28;20498;-82
2022/07/23 07:39:55;;;;;;;5.47;3.28;;;;;;;19.29;67.16;101873.22;5048621;28;20281;-83
2022/07/23 07:42:20;;;;;;;7.00;3.95;;;;;;;19.37;67.39;101870.66;5047699;28;20021;-82
2022/07/23 07:44:45;;;;;;;6.38;3.90;;;;;;;19.74;67.97;101869.84;5050181;28;20064;-82
2022/07/23 07:47:11;;;;;;;5.28;4.75;;;;;;;19.90;64.93;101867.34;5049460;28;20416;-83
2022/07/23 07:49:36;;;;;;;8.77;4.57;;;;;;;20.18;66.34;101872.69;5032546;28;20029;-84
2022/07/23 07:52:02;;;;;;;10.23;4.18;;;;;;;20.20;63.55;101865.34;5050391;28;20021;-85
2022/07/23 07:54:28;;;;;;;3.65;3.20;;;;;;;20.42;62.87;101866.78;5050563;28;20391;-88
2022/07/23 07:56:53;;;;;;;4.72;4.20;;;;;;;20.60;61.57;101864.94;5050423;28;20056;-89
2022/07/23 07:59:18;;;;;;;6.32;4.40;;;;;;;20.79;62.24;101869.25;5050843;28;20033;-87
2022/07/23 08:01:43;;;;;;;5.72;3.30;;;;;;;20.86;59.96;101875.69;5032817;28;20021;-86
2022/07/23 08:04:09;;;;;;;8.35;4.90;;;;;;;21.22;60.73;101871.09;5049297;28;20024;-84
2022/07/23 08:06:34;;;;;;;6.95;4.32;;;;;;;21.16;58.78;101871.72;5049607;28;20032;-88
2022/07/23 08:08:59;;;;;;;5.78;3.78;;;;;;;21.17;60.99;101874.22;5049522;28;20024;-80
2022/07/23 08:11:25;;;;;;;3.50;2.20;;;;;;;21.33;56.74;101873.53;5050185;28;20025;-90
2022/07/23 08:13:50;;;;;;;5.80;3.60;;;;;;;21.53;58.23;101868.78;5050082;28;20071;-89
2022/07/23 08:16:16;;;;;;;7.15;4.65;;;;;;;21.68;58.40;101867.19;5049505;28;20029;-80
2022/07/23 08:18:41;;;;;;;5.32;4.20;;;;;;;21.78;57.60;101870.56;5050177;28;20132;-80
2022/07/23 08:21:07;;;;;;;4.47;3.95;;;;;;;21.80;56.92;101878.47;5031837;28;20108;-80
2022/07/23 08:23:32;;;;;;;8.15;4.10;;;;;;;21.93;57.74;101880.66;5049116;28;20052;-79
2022/07/23 08:25:59;;;;;;;6.00;3.72;;;;;;;22.13;56.36;101882.97;5049031;28;20029;-80
2022/07/23 08:28:25;;;;;;;5.50;4.38;;;;;;;21.83;55.28;101886.16;5064847;28;20070;-79
2022/07/23 08:30:50;;;;;;;6.25;3.50;;;;;;;22.13;57.42;101888.31;4994697;28;20029;-80
2022/07/23 08:33:17;;;;;;;9.25;4.13;;;;;;;22.24;56.76;101886.31;5028702;28;20030;-79
2022/07/23 08:35:49;;;;;;;6.55;4.00;;;;;;;22.36;56.76;101895.72;5030253;28;20115;-79
2022/07/23 08:38:20;;;;;;;8.75;3.75;;;;;;;22.31;56.48;101890.84;5047731;28;20064;-78
2022/07/23 08:40:53;;;;;;;8.10;4.10;;;;;;;22.62;56.16;101890.25;5049359;28;20499;-79
2022/07/23 08:43:24;;;;;;;5.47;4.03;;;;;;;22.41;54.14;101899.59;5044585;28;20033;-80
2022/07/23 08:45:58;;;;;;;5.57;3.78;;;;;;;22.39;55.69;101909.66;5032266;28;20112;-79
2022/07/23 08:48:27;;;;;;;7.95;3.60;;;;;;;22.47;55.90;101907.00;5029936;28;20057;-78
2022/07/23 08:50:55;;;;;;;4.80;3.60;;;;;;;22.19;53.37;101895.69;5029353;28;20022;-78
2022/07/23 08:53:22;;;;;;;5.72;3.53;;;;;;;22.58;54.23;101896.94;5028641;28;20029;-77
2022/07/23 08:55:50;;;;;;;7.60;3.17;;;;;;;22.84;55.95;101899.50;5029445;28;20053;-76
2022/07/23 08:58:16;;;;;;;4.90;3.60;;;;;;;23.10;53.84;101903.66;5010895;28;20651;-76
2022/07/23 09:00:42;;;;;;;6.32;3.47;;;;;;;23.21;54.84;101904.31;5029843;28;20036;-76
2022/07/23 09:03:11;;;;;;;6.90;3.28;;;;;;;23.42;54.93;101901.94;5046584;28;20032;-76
2022/07/23 09:05:37;;;;;;;4.35;3.33;;;;;;;23.51;53.02;101892.00;5028654;28;20031;-76
2022/07/23 09:08:14;;;;;;;5.68;3.70;;;;;;;23.30;54.28;101897.97;5030029;28;20033;-76
2022/07/23 09:10:48;;;;;;;4.90;3.65;;;;;;;23.19;53.75;101891.06;5030963;28;20021;-76
2022/07/23 09:19:46;;;;;;;4.10;3.50;;;;;;;23.00;54.70;101886.91;5535080;23;20046;-75
2022/07/23 09:22:22;;;;;;;4.72;3.13;;;;;;;23.08;54.92;101875.31;4974306;28;20046;-74
2022/07/23 09:25:06;;;;;;;4.50;3.10;;;;;;;23.29;55.89;101880.16;4990811;28;20361;-75
2022/07/23 09:27:53;;;;;;;4.82;3.88;;;;;;;22.97;54.28;101879.19;4985219;28;20026;-75
2022/07/23 09:30:21;;;;;;;4.70;3.22;;;;;;;23.08;53.05;101889.59;4989825;28;20026;-75
2022/07/23 09:33:07;;;;;;;6.13;3.80;;;;;;;23.40;53.67;101883.31;4986246;28;20057;-75
2022/07/23 09:35:55;;;;;;;4.20;3.10;;;;;;;23.70;52.81;101889.81;5015534;28;20030;-75
2022/07/23 09:38:23;;;;;;;5.63;3.30;;;;;;;23.49;49.77;101881.44;4989486;28;20022;-76
2022/07/23 09:41:09;;;;;;;5.80;3.83;;;;;;;23.70;52.77;101889.81;4988301;28;20695;-76
2022/07/23 09:43:34;;;;;;;7.18;4.10;;;;;;;23.30;51.61;101895.25;4988628;28;20034;-75
2022/07/23 09:46:24;;;;;;;6.50;3.70;;;;;;;23.39;53.52;101902.28;4989912;28;20034;-75
2022/07/23 09:48:56;;;;;;;8.73;3.50;;;;;;;23.28;53.50;101891.91;4985927;28;20374;-75
2022/07/23 09:51:42;;;;;;;5.15;4.00;;;;;;;23.35;51.61;101895.59;4988254;28;20014;-75
2022/07/23 09:54:22;;;;;;;7.30;3.55;;;;;;;23.69;53.42;101893.50;4989385;28;20058;-76
2022/07/23 09:56:48;;;;;;;6.60;3.30;;;;;;;23.71;51.25;101894.16;4976285;28;20022;-76
2022/07/23 09:59:17;;;;;;;5.65;3.50;;;;;;;23.87;51.53;101895.09;4989850;28;20023;-79
2022/07/23 10:01:43;;;;;;;7.30;3.42;;;;;;;23.98;50.94;101894.69;4989440;28;20033;-77
2022/07/23 10:04:14;;;;;;;5.72;3.50;;;;;;;24.19;52.09;101892.25;4989809;28;20506;-77
2022/07/23 10:06:41;;;;;;;4.63;3.10;;;;;;;24.35;49.10;101886.78;4990013;28;20019;-78
2022/07/23 10:09:08;;;;;;;6.57;3.50;;;;;;;24.72;51.89;101893.25;4989625;28;20022;-77
2022/07/23 10:11:34;;;;;;;4.70;3.00;;;;;;;24.82;50.84;101888.47;4989941;28;20029;-77
2022/07/23 10:14:03;;;;;;;5.35;3.28;;;;;;;24.82;50.79;101885.78;4990349;28;20545;-77
2022/07/23 10:16:29;;;;;;;4.32;3.20;;;;;;;25.08;49.53;101889.94;4984150;28;20069;-78
2022/07/23 10:18:54;;;;;;;7.57;3.10;;;;;;;25.23;48.85;101888.13;4976796;28;20030;-77
2022/07/23 10:22:01;;;;;;;5.03;2.95;;;;;;;25.55;49.12;101893.13;4989176;28;20046;-77
2022/07/23 10:24:45;;;;;;;5.90;3.50;;;;;;;25.33;48.60;101887.84;4967144;28;20066;-76
2022/07/23 10:27:22;;;;;;;5.40;3.45;;;;;;;24.99;49.94;101892.72;4989067;28;20038;-77
2022/07/23 10:30:06;;;;;;;5.72;3.45;;;;;;;25.11;49.60;101892.25;4988806;28;20026;-77
2022/07/23 10:33:05;;;;;;;5.03;2.90;;;;;;;25.22;49.70;101891.84;4991587;28;20034;-76
2022/07/23 10:35:43;;;;;;;5.15;2.55;;;;;;;25.51;48.61;101894.53;4988977;28;20027;-76
2022/07/23 10:38:23;;;;;;;4.20;2.40;;;;;;;25.76;48.82;101896.97;4991362;28;20471;-76
2022/07/23 10:41:07;;;;;;;4.47;2.17;;;;;;;26.00;48.07;101893.09;4991713;28;20022;-77
2022/07/23 10:43:32;;;;;;;3.08;2.05;;;;;;;25.99;45.48;101886.88;4991695;28;20069;-77
2022/07/23 10:49:33;;;;;;;;;;;;;;;26.47;46.62;101885.38;4981838;28;20479;-76
2022/07/23 10:52:13;;;;;;;3.05;1.88;;;;;;;25.94;44.60;101889.31;4969812;28;20413;-75
2022/07/23 10:54:38;;;;;;;3.95;2.92;;;;;;;25.41;45.04;101891.28;4977150;28;20026;-76
2022/07/23 10:57:07;;;;;;;6.30;2.80;;;;;;;25.40;45.12;101892.31;4990906;28;20089;-81
2022/07/23 11:00:22;;;;;;;3.20;1.80;;;;;;;25.52;46.10;101898.88;4975030;28;20042;-76
2022/07/23 11:02:49;;;;;;;3.13;1.80;;;;;;;25.16;42.71;101889.84;4978264;28;20085;-77
2022/07/23 11:05:20;;;;;;;4.75;2.15;;;;;;;25.08;44.38;101890.78;4991664;28;20032;-76
2022/07/23 11:08:03;;;;;;;3.80;1.80;;;;;;;25.42;47.79;101887.56;5007696;28;20022;-76
2022/07/23 11:10:39;;;;;;;2.38;2.00;;;;;;;25.64;44.66;101882.28;4992173;28;20397;-76
2022/07/23 11:13:23;;;;;;;2.40;1.65;;;;;;;25.93;45.58;101884.94;4990309;28;20057;-77
2022/07/23 11:16:14;;;;;;;1.60;1.42;;;;;;;26.18;44.83;101872.78;4983623;28;20385;-77
2022/07/23 11:18:40;;;;;;;2.10;1.60;;;;;;;26.15;41.80;101873.19;4986066;28;20049;-76
2022/07/23 11:21:23;;;;;;;2.00;1.58;;;;;;;26.24;43.71;101882.81;4992258;28;20051;-77
2022/07/23 11:24:13;;;;;;;3.08;1.30;;;;;;;26.58;44.53;101875.09;4992639;28;20085;-76
2022/07/23 11:26:39;;;;;;;3.83;1.45;;;;;;;26.72;40.65;101866.91;4991964;28;20034;-77
2022/07/23 11:29:26;;;;;;;4.03;1.70;;;;;;;26.93;42.40;101873.31;4977342;28;20081;-77
2022/07/23 11:31:55;;;;;;;3.20;1.60;;;;;;;26.83;39.79;101871.78;4980838;28;20030;-77
2022/07/23 11:34:27;;;;;;;2.50;1.65;;;;;;;27.03;40.44;101876.53;4992231;28;20388;-76